createdAt,value
2017-03-29T00:00:45.657Z,47.23
2017-03-29T00:01:45.694Z,47.2
2017-03-29T00:02:45.737Z,47.2
2017-03-29T00:03:45.768Z,47.2
2017-03-29T00:04:46.110Z,47.11
2017-03-29T00:05:45.846Z,47.2
2017-03-29T00:06:45.886Z,47.3
2017-03-29T00:07:45.921Z,47.39
2017-03-29T00:08:45.960Z,47.58
2017-03-29T00:09:45.997Z,47.3
2017-03-29T00:10:46.036Z,47.49
2017-03-29T00:11:46.073Z,47.78
2017-03-29T00:12:46.114Z,47.68
2017-03-29T00:13:46.151Z,47.68
2017-03-29T00:14:46.187Z,48.35
2017-03-29T00:15:46.231Z,48.35
2017-03-29T00:16:46.263Z,47.87
2017-03-29T00:17:46.642Z,48.44
2017-03-29T00:18:46.567Z,48.64
2017-03-29T00:19:46.378Z,48.54
2017-03-29T00:20:46.417Z,48.44
2017-03-29T00:21:46.460Z,48.25
2017-03-29T00:22:46.490Z,48.35
2017-03-29T00:23:46.529Z,48.44
2017-03-29T00:24:46.574Z,48.35
2017-03-29T00:25:46.607Z,48.16
2017-03-29T00:26:46.644Z,48.07
2017-03-29T00:27:46.987Z,48.83
2017-03-29T00:28:46.724Z,48.44
2017-03-29T00:29:46.764Z,48.73
2017-03-29T00:30:46.800Z,48.93
2017-03-29T00:31:46.843Z,49.11
2017-03-29T00:32:46.877Z,49.3
2017-03-29T00:33:46.912Z,49.3
2017-03-29T00:34:46.957Z,49.11
2017-03-29T00:35:46.994Z,49.02
2017-03-29T00:36:47.027Z,49.11
2017-03-29T00:37:47.403Z,49.69
2017-03-29T00:38:47.102Z,49.49
2017-03-29T00:39:47.142Z,49.3
2017-03-29T00:40:47.178Z,49.4
2017-03-29T00:41:47.222Z,49.4
2017-03-29T00:42:47.257Z,49.4
2017-03-29T00:43:47.299Z,49.78
2017-03-29T00:44:47.331Z,50.07
2017-03-29T00:45:47.372Z,49.88
2017-03-29T00:46:47.411Z,49.88
2017-03-29T00:47:47.445Z,50.07
2017-03-29T00:48:47.493Z,49.98
2017-03-29T00:49:47.525Z,50.07
2017-03-29T00:50:47.559Z,50.35
2017-03-29T00:51:47.599Z,50.26
2017-03-29T00:52:47.638Z,50.43
2017-03-29T00:53:47.677Z,50.35
2017-03-29T00:54:47.709Z,50.24
2017-03-29T00:55:47.750Z,50.24
2017-03-29T00:56:47.791Z,50.04
2017-03-29T00:57:47.829Z,50.74
2017-03-29T00:58:47.891Z,50.81
2017-03-29T00:59:47.899Z,51.09
2017-03-29T01:00:47.939Z,51
2017-03-29T01:01:47.975Z,50.81
2017-03-29T01:02:48.013Z,51.38
2017-03-29T01:03:48.051Z,51.57
2017-03-29T01:04:48.087Z,51.09
2017-03-29T01:05:48.127Z,51.38
2017-03-29T01:06:48.168Z,51
2017-03-29T01:07:48.205Z,51.09
2017-03-29T01:08:48.237Z,51.38
2017-03-29T01:09:48.277Z,51.19
2017-03-29T01:10:48.318Z,51.38
2017-03-29T01:11:48.356Z,51.38
2017-03-29T01:12:48.391Z,51.38
2017-03-29T01:13:48.435Z,51.86
2017-03-29T01:14:48.469Z,52.15
2017-03-29T01:15:48.507Z,51.57
2017-03-29T01:16:48.545Z,51.86
2017-03-29T01:17:48.579Z,51.67
2017-03-29T01:18:48.619Z,51.76
2017-03-29T01:19:48.959Z,51.86
2017-03-29T01:20:48.700Z,51.76
2017-03-29T01:21:48.737Z,51.57
2017-03-29T01:22:48.772Z,52.15
2017-03-29T01:23:48.833Z,52.62
2017-03-29T01:24:48.844Z,51.76
2017-03-29T01:25:48.882Z,51.86
2017-03-29T01:26:48.921Z,52.15
2017-03-29T01:27:48.960Z,52.53
2017-03-29T01:28:49.003Z,51.95
2017-03-29T01:29:49.045Z,52.43
2017-03-29T01:30:49.078Z,52.15
2017-03-29T01:31:49.118Z,51.86
2017-03-29T01:32:49.154Z,52.05
2017-03-29T01:33:49.194Z,52.15
2017-03-29T01:34:49.225Z,52.05
2017-03-29T01:35:49.265Z,52.43
2017-03-29T01:36:49.330Z,52.15
2017-03-29T01:37:49.343Z,52.43
2017-03-29T01:38:49.377Z,52.62
2017-03-29T01:39:49.417Z,52.62
2017-03-29T01:40:49.453Z,52.62
2017-03-29T01:41:49.793Z,52.43
2017-03-29T01:42:49.531Z,52.91
2017-03-29T01:43:49.567Z,53.1
2017-03-29T01:44:49.912Z,53
2017-03-29T01:45:49.648Z,52.91
2017-03-29T01:46:49.682Z,52.62
2017-03-29T01:47:49.720Z,52.43
2017-03-29T01:48:49.761Z,52.53
2017-03-29T01:49:49.795Z,52.72
2017-03-29T01:50:49.831Z,52.53
2017-03-29T01:51:49.871Z,52.72
2017-03-29T01:52:49.908Z,53.29
2017-03-29T01:53:49.950Z,53.29
2017-03-29T01:54:49.986Z,53.1
2017-03-29T01:55:50.024Z,52.91
2017-03-29T01:56:50.060Z,53.2
2017-03-29T01:57:50.095Z,53.2
2017-03-29T01:58:50.135Z,53.1
2017-03-29T01:59:50.175Z,52.91
2017-03-29T02:00:50.215Z,52.81
2017-03-29T02:01:50.555Z,53.29
2017-03-29T02:02:50.292Z,52.91
2017-03-29T02:03:50.329Z,53.39
2017-03-29T02:04:50.367Z,53.1
2017-03-29T02:05:50.402Z,53.39
2017-03-29T02:06:50.441Z,53.49
2017-03-29T02:07:50.474Z,53.29
2017-03-29T02:08:50.515Z,53.49
2017-03-29T02:09:50.553Z,53.29
2017-03-29T02:10:50.591Z,53.39
2017-03-29T02:11:50.634Z,53.39
2017-03-29T02:12:50.664Z,53.49
2017-03-29T02:13:50.707Z,53.2
2017-03-29T02:14:50.741Z,53.67
2017-03-29T02:15:50.783Z,53.86
2017-03-29T02:16:50.820Z,53.96
2017-03-29T02:17:50.856Z,53.96
2017-03-29T02:18:50.893Z,53.77
2017-03-29T02:19:50.929Z,53.86
2017-03-29T02:20:50.970Z,53.86
2017-03-29T02:21:51.024Z,53.67
2017-03-29T02:22:51.048Z,53.49
2017-03-29T02:23:51.081Z,53.96
2017-03-29T02:24:51.122Z,54.15
2017-03-29T02:25:51.158Z,53.67
2017-03-29T02:26:51.197Z,53.96
2017-03-29T02:27:51.235Z,53.96
2017-03-29T02:28:51.272Z,53.77
2017-03-29T02:29:51.310Z,53.77
2017-03-29T02:30:51.349Z,53.58
2017-03-29T02:31:51.382Z,53.77
2017-03-29T02:32:51.424Z,53.86
2017-03-29T02:33:51.460Z,53.86
2017-03-29T02:34:51.497Z,54.15
2017-03-29T02:35:51.538Z,53.77
2017-03-29T02:36:51.572Z,54.44
2017-03-29T02:37:51.614Z,54.15
2017-03-29T02:38:51.649Z,54.53
2017-03-29T02:39:51.688Z,54.44
2017-03-29T02:40:51.726Z,54.63
2017-03-29T02:41:51.761Z,54.15
2017-03-29T02:42:51.799Z,54.34
2017-03-29T02:43:51.838Z,54.72
2017-03-29T02:44:51.876Z,54.72
2017-03-29T02:45:51.915Z,54.91
2017-03-29T02:46:51.951Z,54.91
2017-03-29T02:47:51.990Z,54.89
2017-03-29T02:48:52.028Z,54.63
2017-03-29T02:49:52.371Z,54.5
2017-03-29T02:50:52.421Z,54.7
2017-03-29T02:51:52.142Z,54.79
2017-03-29T02:52:52.177Z,54.44
2017-03-29T02:53:52.218Z,54.72
2017-03-29T02:54:52.253Z,54.32
2017-03-29T02:55:52.293Z,55.46
2017-03-29T02:56:52.329Z,55.58
2017-03-29T02:57:52.366Z,55.27
2017-03-29T02:58:52.406Z,55.46
2017-03-29T02:59:52.441Z,55.55
2017-03-29T03:00:52.479Z,55.4
2017-03-29T03:01:52.520Z,55.4
2017-03-29T03:02:52.554Z,55.36
2017-03-29T03:03:52.592Z,55.49
2017-03-29T03:04:52.632Z,55.01
2017-03-29T03:05:52.668Z,55.01
2017-03-29T03:06:52.705Z,55.11
2017-03-29T03:07:52.750Z,54.91
2017-03-29T03:08:53.080Z,55.01
2017-03-29T03:09:52.818Z,55.18
2017-03-29T03:10:52.856Z,55.3
2017-03-29T03:11:52.894Z,55.01
2017-03-29T03:12:52.932Z,55.01
2017-03-29T03:13:52.974Z,55.46
2017-03-29T03:14:53.008Z,55.58
2017-03-29T03:15:53.054Z,55.27
2017-03-29T03:16:53.085Z,55.18
2017-03-29T03:17:53.122Z,55.46
2017-03-29T03:18:53.160Z,55.27
2017-03-29T03:19:53.202Z,55.27
2017-03-29T03:20:53.244Z,55.75
2017-03-29T03:21:53.273Z,55.84
2017-03-29T03:22:53.308Z,55.46
2017-03-29T03:23:53.345Z,55.68
2017-03-29T03:24:53.385Z,55.75
2017-03-29T03:25:53.420Z,55.65
2017-03-29T03:26:53.461Z,55.68
2017-03-29T03:27:53.496Z,55.96
2017-03-29T03:28:53.534Z,55.77
2017-03-29T03:29:53.570Z,55.68
2017-03-29T03:30:53.609Z,55.75
2017-03-29T03:31:53.645Z,55.87
2017-03-29T03:32:53.682Z,55.68
2017-03-29T03:33:53.719Z,56.13
2017-03-29T03:34:53.755Z,55.75
2017-03-29T03:35:53.795Z,55.94
2017-03-29T03:36:53.837Z,56.41
2017-03-29T03:37:53.871Z,56.32
2017-03-29T03:38:53.914Z,56.04
2017-03-29T03:39:53.947Z,56.13
2017-03-29T03:40:53.986Z,55.75
2017-03-29T03:41:54.025Z,55.94
2017-03-29T03:42:54.060Z,55.84
2017-03-29T03:43:54.096Z,56.04
2017-03-29T03:44:54.132Z,56.32
2017-03-29T03:45:54.169Z,56.41
2017-03-29T03:46:54.209Z,56.32
2017-03-29T03:47:54.245Z,56.32
2017-03-29T03:48:54.287Z,56.8
2017-03-29T03:49:54.326Z,56.6
2017-03-29T03:50:54.357Z,56.7
2017-03-29T03:51:54.402Z,56.7
2017-03-29T03:52:54.435Z,56.8
2017-03-29T03:53:54.516Z,56.89
2017-03-29T03:54:54.508Z,56.8
2017-03-29T03:55:54.544Z,57.09
2017-03-29T03:56:54.586Z,57.28
2017-03-29T03:57:54.624Z,57.18
2017-03-29T03:58:54.661Z,56.99
2017-03-29T03:59:54.699Z,56.89
2017-03-29T04:00:54.732Z,56.99
2017-03-29T04:01:54.772Z,56.99
2017-03-29T04:02:54.811Z,57.34
2017-03-29T04:03:54.848Z,57.46
2017-03-29T04:04:54.884Z,57.56
2017-03-29T04:05:54.921Z,57.34
2017-03-29T04:06:54.959Z,57.43
2017-03-29T04:07:54.998Z,57.72
2017-03-29T04:08:55.033Z,57.63
2017-03-29T04:09:55.074Z,57.92
2017-03-29T04:10:55.110Z,57.82
2017-03-29T04:11:55.148Z,57.63
2017-03-29T04:12:55.177Z,57.63
2017-03-29T04:13:55.219Z,57.72
2017-03-29T04:14:55.257Z,57.92
2017-03-29T04:15:55.297Z,58.01
2017-03-29T04:16:55.331Z,58.11
2017-03-29T04:17:55.368Z,58.29
2017-03-29T04:18:55.405Z,57.72
2017-03-29T04:19:55.445Z,57.53
2017-03-29T04:20:55.481Z,58.29
2017-03-29T04:21:55.516Z,58.58
2017-03-29T04:22:55.556Z,58.58
2017-03-29T04:23:55.590Z,58.39
2017-03-29T04:24:55.629Z,58.39
2017-03-29T04:25:55.669Z,58.2
2017-03-29T04:26:55.701Z,58.48
2017-03-29T04:27:55.743Z,58.58
2017-03-29T04:28:55.779Z,58.29
2017-03-29T04:29:55.815Z,58.87
2017-03-29T04:30:55.855Z,58.87
2017-03-29T04:31:55.888Z,58.87
2017-03-29T04:32:55.935Z,58.97
2017-03-29T04:33:55.961Z,59.06
2017-03-29T04:34:56.000Z,59.16
2017-03-29T04:35:56.039Z,58.77
2017-03-29T04:36:56.077Z,58.84
2017-03-29T04:37:56.423Z,58.68
2017-03-29T04:38:56.147Z,59.22
2017-03-29T04:39:56.187Z,59.06
2017-03-29T04:40:56.228Z,59.25
2017-03-29T04:41:56.258Z,59.06
2017-03-29T04:42:56.295Z,59.6
2017-03-29T04:43:56.336Z,59.16
2017-03-29T04:44:56.367Z,59.31
2017-03-29T04:45:56.418Z,59.16
2017-03-29T04:46:56.447Z,59.31
2017-03-29T04:47:56.480Z,59.25
2017-03-29T04:48:56.520Z,59.31
2017-03-29T04:49:56.557Z,59.53
2017-03-29T04:50:56.593Z,59.79
2017-03-29T04:51:56.630Z,59.7
2017-03-29T04:52:56.681Z,59.6
2017-03-29T04:53:56.711Z,59.7
2017-03-29T04:54:56.742Z,59.92
2017-03-29T04:55:56.777Z,59.92
2017-03-29T04:56:56.819Z,59.92
2017-03-29T04:57:56.854Z,59.99
2017-03-29T04:58:56.888Z,59.92
2017-03-29T04:59:56.924Z,59.99
2017-03-29T05:00:56.965Z,59.92
2017-03-29T05:01:57.010Z,60.11
2017-03-29T05:02:57.037Z,59.7
2017-03-29T05:03:57.074Z,59.79
2017-03-29T05:04:57.111Z,59.79
2017-03-29T05:05:57.150Z,60.21
2017-03-29T05:06:57.184Z,59.82
2017-03-29T05:07:57.226Z,60.36
2017-03-29T05:08:57.258Z,60.21
2017-03-29T05:09:57.296Z,60.3
2017-03-29T05:10:57.331Z,60.39
2017-03-29T05:11:57.371Z,59.92
2017-03-29T05:12:57.409Z,59.92
2017-03-29T05:13:57.450Z,60.02
2017-03-29T05:14:57.484Z,60.02
2017-03-29T05:15:57.523Z,60.02
2017-03-29T05:16:57.558Z,60.21
2017-03-29T05:17:57.598Z,60.21
2017-03-29T05:18:57.629Z,60.11
2017-03-29T05:19:57.675Z,60.02
2017-03-29T05:20:57.707Z,60.02
2017-03-29T05:21:57.777Z,60.02
2017-03-29T05:22:57.780Z,59.73
2017-03-29T05:23:57.817Z,60.11
2017-03-29T05:24:57.858Z,60.11
2017-03-29T05:25:57.895Z,59.76
2017-03-29T05:26:57.927Z,59.95
2017-03-29T05:27:57.964Z,59.85
2017-03-29T05:28:58.002Z,60.04
2017-03-29T05:29:58.041Z,60.04
2017-03-29T05:30:58.080Z,59.95
2017-03-29T05:31:58.118Z,60.33
2017-03-29T05:32:58.155Z,59.85
2017-03-29T05:33:58.190Z,59.85
2017-03-29T05:34:58.228Z,59.95
2017-03-29T05:35:58.268Z,59.98
2017-03-29T05:36:58.306Z,59.98
2017-03-29T05:37:58.338Z,59.59
2017-03-29T05:38:58.382Z,59.19
2017-03-29T05:39:58.415Z,59.5
2017-03-29T05:40:58.453Z,59.31
2017-03-29T05:41:58.497Z,59.31
2017-03-29T05:42:58.534Z,58.83
2017-03-29T05:43:58.569Z,59.02
2017-03-29T05:44:58.608Z,58.83
2017-03-29T05:45:58.642Z,59.22
2017-03-29T05:46:58.685Z,59.22
2017-03-29T05:47:58.718Z,59.02
2017-03-29T05:48:58.756Z,58.45
2017-03-29T05:49:58.794Z,59.22
2017-03-29T05:50:58.836Z,58.38
2017-03-29T05:51:58.875Z,58.58
2017-03-29T05:52:58.909Z,58.76
2017-03-29T05:53:58.947Z,58.58
2017-03-29T05:54:58.983Z,58.48
2017-03-29T05:55:59.027Z,58.58
2017-03-29T05:56:59.061Z,58.58
2017-03-29T05:57:59.097Z,58.1
2017-03-29T05:58:59.137Z,58.38
2017-03-29T05:59:59.181Z,58.26
2017-03-29T06:00:59.215Z,58.1
2017-03-29T06:01:59.253Z,58.19
2017-03-29T06:02:59.288Z,58.16
2017-03-29T06:03:59.332Z,58.48
2017-03-29T06:04:59.366Z,58.48
2017-03-29T06:05:59.402Z,58.76
2017-03-29T06:06:59.443Z,58.73
2017-03-29T06:07:59.482Z,58.86
2017-03-29T06:08:59.518Z,58.67
2017-03-29T06:09:59.558Z,58.64
2017-03-29T06:10:59.604Z,58.48
2017-03-29T06:11:59.634Z,58.76
2017-03-29T06:12:59.673Z,58.38
2017-03-29T06:13:59.706Z,58.58
2017-03-29T06:14:59.745Z,58.48
2017-03-29T06:15:59.797Z,58.67
2017-03-29T06:16:59.824Z,58.58
2017-03-29T06:17:59.868Z,58.48
2017-03-29T06:19:00.293Z,58.58
2017-03-29T06:19:59.936Z,58.76
2017-03-29T06:21:00.004Z,58.67
2017-03-29T06:22:00.013Z,58.58
2017-03-29T06:23:00.051Z,58.38
2017-03-29T06:24:00.092Z,58.19
2017-03-29T06:25:00.125Z,58.32
2017-03-29T06:26:00.165Z,58.32
2017-03-29T06:27:00.205Z,58.32
2017-03-29T06:28:00.244Z,58.67
2017-03-29T06:29:00.282Z,58.76
2017-03-29T06:30:00.323Z,58.67
2017-03-29T06:31:00.356Z,58.48
2017-03-29T06:32:00.395Z,58.29
2017-03-29T06:33:00.432Z,58.51
2017-03-29T06:34:00.474Z,58.38
2017-03-29T06:35:00.527Z,58.38
2017-03-29T06:36:00.548Z,58.48
2017-03-29T06:37:00.588Z,58.86
2017-03-29T06:38:00.645Z,58.58
2017-03-29T06:39:00.660Z,58.48
2017-03-29T06:40:00.710Z,58.67
2017-03-29T06:41:00.735Z,58.38
2017-03-29T06:42:00.779Z,58.38
2017-03-29T06:43:00.818Z,58.58
2017-03-29T06:44:00.851Z,58.48
2017-03-29T06:45:00.892Z,58.48
2017-03-29T06:46:01.245Z,58.76
2017-03-29T06:47:00.967Z,58.67
2017-03-29T06:48:01.008Z,58.67
2017-03-29T06:49:01.041Z,58.48
2017-03-29T06:50:01.078Z,58.38
2017-03-29T06:51:01.123Z,58.86
2017-03-29T06:52:01.162Z,58.58
2017-03-29T06:53:01.196Z,58.48
2017-03-29T06:54:01.485Z,58.67
2017-03-29T06:55:01.273Z,58.48
2017-03-29T06:56:01.311Z,58.48
2017-03-29T06:57:01.350Z,58.58
2017-03-29T06:58:01.391Z,58.48
2017-03-29T06:59:01.424Z,58.38
2017-03-29T07:00:01.463Z,58.19
2017-03-29T07:01:01.500Z,58.1
2017-03-29T07:02:01.543Z,58.29
2017-03-29T07:03:01.591Z,58.19
2017-03-29T07:04:01.778Z,58.51
2017-03-29T07:05:01.826Z,58.76
2017-03-29T07:06:01.696Z,58.76
2017-03-29T07:07:01.731Z,58.7
2017-03-29T07:08:01.778Z,58.32
2017-03-29T07:09:01.805Z,57.81
2017-03-29T07:10:01.848Z,57.84
2017-03-29T07:11:01.889Z,57.84
2017-03-29T07:12:01.925Z,57.9
2017-03-29T07:13:01.959Z,58.32
2017-03-29T07:14:01.998Z,57.75
2017-03-29T07:15:02.039Z,57.26
2017-03-29T07:16:02.077Z,58.03
2017-03-29T07:17:02.113Z,58.03
2017-03-29T07:18:02.153Z,57.65
2017-03-29T07:19:02.192Z,57.75
2017-03-29T07:20:02.232Z,57.55
2017-03-29T07:21:02.266Z,57.46
2017-03-29T07:22:02.309Z,57.65
2017-03-29T07:23:02.342Z,57.36
2017-03-29T07:24:02.380Z,56.98
2017-03-29T07:25:02.423Z,57.55
2017-03-29T07:26:02.464Z,57.46
2017-03-29T07:27:02.499Z,57.75
2017-03-29T07:28:02.539Z,56.98
2017-03-29T07:29:02.581Z,57.07
2017-03-29T07:30:02.615Z,57.26
2017-03-29T07:31:02.652Z,57.07
2017-03-29T07:32:02.700Z,57.07
2017-03-29T07:33:02.740Z,56.79
2017-03-29T07:34:02.795Z,57.2
2017-03-29T07:35:02.809Z,57.39
2017-03-29T07:36:02.849Z,57.1
2017-03-29T07:37:02.887Z,56.91
2017-03-29T07:38:02.923Z,56.82
2017-03-29T07:39:02.962Z,56.82
2017-03-29T07:40:03.003Z,56.72
2017-03-29T07:41:03.045Z,56.91
2017-03-29T07:42:03.084Z,56.91
2017-03-29T07:43:03.121Z,57.23
2017-03-29T07:44:03.158Z,56.17
2017-03-29T07:45:03.211Z,55.69
2017-03-29T07:46:03.236Z,55.79
2017-03-29T07:47:03.282Z,55.88
2017-03-29T07:48:03.313Z,55.6
2017-03-29T07:49:03.354Z,55.69
2017-03-29T07:50:03.393Z,55.41
2017-03-29T07:51:03.434Z,55.6
2017-03-29T07:52:03.472Z,56.17
2017-03-29T07:53:03.517Z,55.98
2017-03-29T07:54:03.564Z,55.79
2017-03-29T07:55:03.596Z,55.51
2017-03-29T07:56:03.634Z,56.05
2017-03-29T07:57:04.796Z,55.51
2017-03-29T07:58:03.705Z,55.41
2017-03-29T07:59:03.747Z,55.31
2017-03-29T08:00:03.787Z,55.98
2017-03-29T08:01:03.823Z,55.41
2017-03-29T08:02:03.864Z,55.69
2017-03-29T08:03:03.903Z,55.53
2017-03-29T08:04:03.946Z,55.73
2017-03-29T08:05:03.985Z,54.96
2017-03-29T08:06:04.029Z,54.86
2017-03-29T08:07:04.086Z,55.05
2017-03-29T08:08:04.108Z,54.67
2017-03-29T08:09:04.141Z,55.53
2017-03-29T08:10:04.180Z,57.09
2017-03-29T08:11:04.223Z,55.97
2017-03-29T08:12:04.263Z,54.08
2017-03-29T08:13:04.307Z,53.05
2017-03-29T08:14:04.340Z,52.12
2017-03-29T08:15:04.387Z,52.4
2017-03-29T08:16:04.426Z,52.46
2017-03-29T08:17:04.480Z,51.59
2017-03-29T08:18:04.510Z,50.59
2017-03-29T08:19:04.557Z,50.04
2017-03-29T08:20:04.600Z,48.83
2017-03-29T08:21:04.638Z,48.86
2017-03-29T08:22:04.682Z,47.07
2017-03-29T08:23:04.735Z,46.15
2017-03-29T08:24:04.771Z,44.15
2017-03-29T08:25:04.815Z,42.65
2017-03-29T08:26:04.862Z,42.28
2017-03-29T08:27:04.908Z,41.42
2017-03-29T08:28:04.954Z,40.67
2017-03-29T08:29:05.020Z,39.62
2017-03-29T08:30:05.047Z,37.9
2017-03-29T08:31:05.094Z,36.25
2017-03-29T08:32:05.138Z,35.38
2017-03-29T08:33:05.184Z,36.06
2017-03-29T08:34:05.234Z,35.3
2017-03-29T08:35:05.280Z,34.33
2017-03-29T08:36:05.328Z,33.76
2017-03-29T08:37:05.375Z,32.5
2017-03-29T08:38:05.423Z,32.89
2017-03-29T08:39:05.470Z,32.52
2017-03-29T08:40:05.822Z,32.13
2017-03-29T08:41:05.566Z,31.18
2017-03-29T08:42:05.614Z,31.29
2017-03-29T08:43:05.667Z,30.43
2017-03-29T08:44:05.713Z,30.33
2017-03-29T08:45:05.760Z,29.66
2017-03-29T08:46:05.813Z,28.59
2017-03-29T08:47:05.854Z,27.33
2017-03-29T08:48:05.904Z,26.94
2017-03-29T08:49:05.958Z,26.25
2017-03-29T08:50:06.021Z,27.4
2017-03-29T08:51:06.068Z,27.11
2017-03-29T08:52:06.147Z,26.23
2017-03-29T08:53:06.160Z,26.15
2017-03-29T08:54:06.236Z,26.73
2017-03-29T08:55:06.308Z,25.96
2017-03-29T08:56:06.309Z,25.76
2017-03-29T08:57:06.401Z,25.95
2017-03-29T08:58:06.405Z,25.65
2017-03-29T08:59:06.707Z,25.65
2017-03-29T09:00:06.501Z,25.25
2017-03-29T09:01:06.550Z,25.45
2017-03-29T09:02:08.267Z,25.93
2017-03-29T09:03:07.904Z,25.74
2017-03-29T09:04:06.799Z,25.75
2017-03-29T09:05:06.941Z,25.65
2017-03-29T09:06:06.800Z,24.97
2017-03-29T09:07:06.854Z,25.07
2017-03-29T09:08:06.901Z,24.88
2017-03-29T09:09:06.974Z,25.16
2017-03-29T09:10:07.010Z,25.26
2017-03-29T09:11:07.059Z,25.07
2017-03-29T09:12:07.108Z,24.68
2017-03-29T09:13:07.153Z,24.97
2017-03-29T09:14:07.207Z,25.16
2017-03-29T09:15:07.256Z,25.05
2017-03-29T09:16:07.326Z,25.05
2017-03-29T09:17:07.363Z,25.54
2017-03-29T09:18:07.405Z,25.36
2017-03-29T09:19:07.456Z,24.68
2017-03-29T09:20:07.508Z,24.39
2017-03-29T09:21:07.559Z,24.68
2017-03-29T09:22:07.616Z,24.69
2017-03-29T09:23:07.665Z,24.4
2017-03-29T09:24:07.713Z,24.21
2017-03-29T09:25:07.769Z,24.11
2017-03-29T09:26:07.836Z,24.4
2017-03-29T09:27:07.873Z,24.3
2017-03-29T09:28:07.921Z,24.21
2017-03-29T09:29:07.971Z,24.21
2017-03-29T09:30:08.022Z,23.62
2017-03-29T09:31:08.084Z,23.62
2017-03-29T09:32:08.127Z,23.71
2017-03-29T09:33:08.179Z,24
2017-03-29T09:34:08.229Z,24.1
2017-03-29T09:35:08.278Z,24.18
2017-03-29T09:36:08.330Z,24.57
2017-03-29T09:37:08.388Z,23.99
2017-03-29T09:38:08.433Z,24.48
2017-03-29T09:39:08.531Z,24.85
2017-03-29T09:40:08.537Z,24.56
2017-03-29T09:41:08.592Z,24.85
2017-03-29T09:42:08.642Z,24.66
2017-03-29T09:43:08.697Z,24.95
2017-03-29T09:44:08.746Z,25.14
2017-03-29T09:45:08.798Z,25.24
2017-03-29T09:46:08.849Z,24.95
2017-03-29T09:47:08.905Z,24.96
2017-03-29T09:48:08.953Z,24.85
2017-03-29T09:49:09.009Z,24.77
2017-03-29T09:50:09.057Z,25.04
2017-03-29T09:51:09.112Z,25.14
2017-03-29T09:52:09.159Z,24.85
2017-03-29T09:53:09.213Z,25.23
2017-03-29T09:54:09.261Z,25.41
2017-03-29T09:55:09.317Z,25.51
2017-03-29T09:56:09.665Z,25.68
2017-03-29T09:57:09.477Z,26.26
2017-03-29T09:58:09.464Z,26.43
2017-03-29T09:59:09.515Z,27.01
2017-03-29T10:00:09.564Z,27.1
2017-03-29T10:01:09.619Z,27.68
2017-03-29T10:02:09.666Z,28.07
2017-03-29T10:03:09.713Z,27.87
2017-03-29T10:04:09.764Z,28.26
2017-03-29T10:05:09.815Z,28.28
2017-03-29T10:06:09.952Z,28.18
2017-03-29T10:07:09.920Z,28.18
2017-03-29T10:08:09.963Z,28.38
2017-03-29T10:09:10.018Z,27.21
2017-03-29T10:10:10.064Z,27.4
2017-03-29T10:11:10.114Z,28.17
2017-03-29T10:12:10.165Z,28.15
2017-03-29T10:13:10.209Z,28.64
2017-03-29T10:14:10.266Z,29.1
2017-03-29T10:15:10.311Z,29.2
2017-03-29T10:16:10.359Z,29.67
2017-03-29T10:17:10.404Z,30.15
2017-03-29T10:18:10.520Z,30.05
2017-03-29T10:19:10.501Z,30.52
2017-03-29T10:20:10.585Z,30.91
2017-03-29T10:21:10.592Z,30.9
2017-03-29T10:22:10.636Z,30.9
2017-03-29T10:23:10.680Z,31.56
2017-03-29T10:24:10.726Z,31.94
2017-03-29T10:25:10.775Z,32.12
2017-03-29T10:26:10.820Z,32.31
2017-03-29T10:27:10.863Z,32.51
2017-03-29T10:28:10.911Z,32.89
2017-03-29T10:29:10.959Z,32.99
2017-03-29T10:30:11.003Z,33.28
2017-03-29T10:31:11.049Z,33.28
2017-03-29T10:32:11.097Z,33.57
2017-03-29T10:33:11.142Z,33.95
2017-03-29T10:34:11.323Z,34.53
2017-03-29T10:35:11.238Z,34.16
2017-03-29T10:36:11.282Z,33.78
2017-03-29T10:37:11.329Z,33.78
2017-03-29T10:38:11.372Z,33.97
2017-03-29T10:39:11.422Z,33.87
2017-03-29T10:40:11.467Z,33.97
2017-03-29T10:41:11.515Z,34.28
2017-03-29T10:42:11.563Z,34.18
2017-03-29T10:43:11.614Z,34.56
2017-03-29T10:44:11.657Z,34.56
2017-03-29T10:45:11.713Z,33.98
2017-03-29T10:46:11.764Z,34.29
2017-03-29T10:47:11.817Z,34.58
2017-03-29T10:48:11.860Z,34.2
2017-03-29T10:49:11.909Z,33.81
2017-03-29T10:50:11.960Z,33.54
2017-03-29T10:51:12.007Z,33.52
2017-03-29T10:52:12.060Z,33.72
2017-03-29T10:53:12.107Z,33.62
2017-03-29T10:54:12.161Z,33.72
2017-03-29T10:55:12.208Z,33.91
2017-03-29T10:56:12.255Z,34.38
2017-03-29T10:57:12.304Z,34.56
2017-03-29T10:58:12.655Z,34.66
2017-03-29T10:59:12.450Z,34.26
2017-03-29T11:00:12.453Z,34.74
2017-03-29T11:01:12.497Z,34.45
2017-03-29T11:02:12.543Z,34.84
2017-03-29T11:03:12.614Z,34.36
2017-03-29T11:04:12.639Z,34.26
2017-03-29T11:05:12.686Z,34.55
2017-03-29T11:06:12.731Z,34.36
2017-03-29T11:07:12.779Z,34.74
2017-03-29T11:08:12.827Z,35.61
2017-03-29T11:09:12.868Z,34.74
2017-03-29T11:10:12.916Z,34.94
2017-03-29T11:11:12.983Z,34.84
2017-03-29T11:12:13.015Z,35.03
2017-03-29T11:13:13.059Z,35.03
2017-03-29T11:14:13.113Z,34.72
2017-03-29T11:15:13.148Z,34.92
2017-03-29T11:16:13.201Z,35.1
2017-03-29T11:17:13.239Z,35.19
2017-03-29T11:18:13.288Z,36.04
2017-03-29T11:19:13.332Z,36.43
2017-03-29T11:20:13.514Z,36.33
2017-03-29T11:21:13.422Z,36.81
2017-03-29T11:22:13.465Z,37.01
2017-03-29T11:23:13.508Z,36.91
2017-03-29T11:24:13.554Z,37.01
2017-03-29T11:25:13.600Z,37.01
2017-03-29T11:26:13.646Z,37.01
2017-03-29T11:27:13.692Z,37.1
2017-03-29T11:28:13.731Z,37.48
2017-03-29T11:29:13.779Z,37.39
2017-03-29T11:30:13.832Z,37.48
2017-03-29T11:31:13.870Z,37.5
2017-03-29T11:32:13.913Z,37.6
2017-03-29T11:33:13.961Z,37.7
2017-03-29T11:34:14.015Z,37.31
2017-03-29T11:35:14.051Z,37.39
2017-03-29T11:36:14.099Z,37.6
2017-03-29T11:37:14.157Z,37.41
2017-03-29T11:38:14.180Z,37.31
2017-03-29T11:39:14.229Z,36.93
2017-03-29T11:40:14.285Z,37.02
2017-03-29T11:41:14.319Z,36.93
2017-03-29T11:42:14.362Z,36.93
2017-03-29T11:43:14.407Z,36.93
2017-03-29T11:44:14.451Z,37.31
2017-03-29T11:45:14.499Z,37.21
2017-03-29T11:46:14.544Z,37.02
2017-03-29T11:47:14.613Z,37.12
2017-03-29T11:48:14.662Z,37.02
2017-03-29T11:49:14.680Z,37.29
2017-03-29T11:50:14.727Z,37.1
2017-03-29T11:51:14.770Z,37.1
2017-03-29T11:52:14.813Z,37.02
2017-03-29T11:53:14.857Z,36.91
2017-03-29T11:54:14.907Z,36.91
2017-03-29T11:55:14.949Z,36.91
2017-03-29T11:56:14.992Z,36.81
2017-03-29T11:57:15.035Z,36.81
2017-03-29T11:58:15.084Z,36.52
2017-03-29T11:59:15.124Z,36.52
2017-03-29T12:00:15.173Z,36.71
2017-03-29T12:01:15.216Z,36.71
2017-03-29T12:02:15.262Z,36.99
2017-03-29T12:03:15.309Z,36.89
2017-03-29T12:04:15.344Z,37.08
2017-03-29T12:05:15.422Z,36.91
2017-03-29T12:06:15.438Z,37.29
2017-03-29T12:07:15.497Z,37.27
2017-03-29T12:08:15.591Z,37.18
2017-03-29T12:09:15.578Z,37.39
2017-03-29T12:10:15.609Z,37.37
2017-03-29T12:11:15.657Z,37.77
2017-03-29T12:12:15.700Z,37.66
2017-03-29T12:13:15.741Z,37.37
2017-03-29T12:14:15.785Z,37.56
2017-03-29T12:15:15.982Z,37.66
2017-03-29T12:16:15.873Z,37.95
2017-03-29T12:17:15.919Z,37.85
2017-03-29T12:18:15.961Z,37.76
2017-03-29T12:19:16.003Z,37.66
2017-03-29T12:20:16.050Z,37.85
2017-03-29T12:21:16.407Z,37.76
2017-03-29T12:22:16.157Z,37.85
2017-03-29T12:23:16.180Z,38.04
2017-03-29T12:24:16.222Z,38.04
2017-03-29T12:25:16.266Z,38.14
2017-03-29T12:26:16.307Z,37.95
2017-03-29T12:27:16.350Z,37.93
2017-03-29T12:28:16.401Z,38.14
2017-03-29T12:29:16.437Z,38.43
2017-03-29T12:30:16.789Z,38.33
2017-03-29T12:31:16.625Z,38.22
2017-03-29T12:32:16.566Z,38.14
2017-03-29T12:33:16.621Z,38.14
2017-03-29T12:34:16.654Z,37.85
2017-03-29T12:35:16.707Z,38.12
2017-03-29T12:36:17.073Z,37.93
2017-03-29T12:37:16.777Z,38.02
2017-03-29T12:38:16.826Z,37.93
2017-03-29T12:39:16.870Z,38.02
2017-03-29T12:40:16.918Z,37.91
2017-03-29T12:41:16.954Z,38.49
2017-03-29T12:42:17.001Z,38.29
2017-03-29T12:43:17.113Z,38.39
2017-03-29T12:44:17.080Z,38.68
2017-03-29T12:45:17.160Z,38.56
2017-03-29T12:46:17.204Z,39.26
2017-03-29T12:47:17.347Z,39.14
2017-03-29T12:48:17.288Z,38.85
2017-03-29T12:49:17.295Z,39.04
2017-03-29T12:50:17.342Z,39.53
2017-03-29T12:51:17.606Z,39.53
2017-03-29T12:52:17.424Z,39.14
2017-03-29T12:53:17.458Z,39.43
2017-03-29T12:54:17.502Z,39.43
2017-03-29T12:55:17.547Z,39.72
2017-03-29T12:56:17.893Z,39.04